sensor_id;sensor_type;location;lat;lon;timestamp;P1;durP1;ratioP1;P2;durP2;ratioP2
20318;SDS011;10317;47.254;11.314;2022-07-09T00:00:03;3.35;;;3.15;;
20318;SDS011;10317;47.254;11.314;2022-07-09T00:02:30;3.90;;;3.70;;
20318;SDS011;10317;47.254;11.314;2022-07-09T00:04:56;3.80;;;3.50;;
20318;SDS011;10317;47.254;11.314;2022-07-09T00:07:21;5.03;;;3.47;;
20318;SDS011;10317;47.254;11.314;2022-07-09T00:09:47;4.85;;;3.50;;
20318;SDS011;10317;47.254;11.314;2022-07-09T00:12:13;4.18;;;3.88;;
20318;SDS011;10317;47.254;11.314;2022-07-09T00:14:39;8.35;;;4.05;;
20318;SDS011;10317;47.254;11.314;2022-07-09T00:17:04;3.70;;;3.40;;
20318;SDS011;10317;47.254;11.314;2022-07-09T00:19:30;3.70;;;3.38;;
20318;SDS011;10317;47.254;11.314;2022-07-09T00:21:56;5.38;;;3.80;;
20318;SDS011;10317;47.254;11.314;2022-07-09T00:24:22;4.63;;;3.58;;
20318;SDS011;10317;47.254;11.314;2022-07-09T00:26:48;5.70;;;3.05;;
20318;SDS011;10317;47.254;11.314;2022-07-09T00:29:13;3.33;;;3.13;;
20318;SDS011;10317;47.254;11.314;2022-07-09T00:31:39;3.97;;;3.08;;
20318;SDS011;10317;47.254;11.314;2022-07-09T00:34:05;4.18;;;3.88;;
20318;SDS011;10317;47.254;11.314;2022-07-09T00:36:30;4.55;;;3.45;;
20318;SDS011;10317;47.254;11.314;2022-07-09T00:38:56;3.95;;;3.63;;
20318;SDS011;10317;47.254;11.314;2022-07-09T00:41:22;6.03;;;3.67;;
20318;SDS011;10317;47.254;11.314;2022-07-09T00:43:48;11.50;;;5.40;;
20318;SDS011;10317;47.254;11.314;2022-07-09T00:46:18;5.60;;;3.38;;
20318;SDS011;10317;47.254;11.314;2022-07-09T00:48:44;3.80;;;3.50;;
20318;SDS011;10317;47.254;11.314;2022-07-09T00:51:11;4.50;;;4.10;;
20318;SDS011;10317;47.254;11.314;2022-07-09T00:53:37;3.30;;;3.00;;
20318;SDS011;10317;47.254;11.314;2022-07-09T00:56:04;3.45;;;3.25;;
20318;SDS011;10317;47.254;11.314;2022-07-09T00:58:30;4.13;;;3.50;;
20318;SDS011;10317;47.254;11.314;2022-07-09T01:00:56;5.68;;;3.75;;
20318;SDS011;10317;47.254;11.314;2022-07-09T01:03:23;4.32;;;3.92;;
20318;SDS011;10317;47.254;11.314;2022-07-09T01:05:49;7.88;;;4.00;;
20318;SDS011;10317;47.254;11.314;2022-07-09T01:08:14;4.10;;;3.60;;
20318;SDS011;10317;47.254;11.314;2022-07-09T01:10:40;3.75;;;3.25;;
20318;SDS011;10317;47.254;11.314;2022-07-09T01:13:08;4.30;;;3.67;;
20318;SDS011;10317;47.254;11.314;2022-07-09T01:15:34;6.13;;;3.53;;
20318;SDS011;10317;47.254;11.314;2022-07-09T01:18:00;3.72;;;3.40;;
20318;SDS011;10317;47.254;11.314;2022-07-09T01:20:26;4.03;;;3.35;;
20318;SDS011;10317;47.254;11.314;2022-07-09T01:22:55;3.22;;;3.03;;
20318;SDS011;10317;47.254;11.314;2022-07-09T01:25:24;6.10;;;3.85;;
20318;SDS011;10317;47.254;11.314;2022-07-09T01:27:58;4.18;;;3.80;;
20318;SDS011;10317;47.254;11.314;2022-07-09T01:30:25;3.28;;;3.00;;
20318;SDS011;10317;47.254;11.314;2022-07-09T01:32:51;4.90;;;3.28;;
20318;SDS011;10317;47.254;11.314;2022-07-09T01:35:18;5.07;;;3.15;;
20318;SDS011;10317;47.254;11.314;2022-07-09T01:37:44;3.35;;;3.00;;
20318;SDS011;10317;47.254;11.314;2022-07-09T01:40:10;6.05;;;3.75;;
20318;SDS011;10317;47.254;11.314;2022-07-09T01:42:37;3.58;;;3.28;;
20318;SDS011;10317;47.254;11.314;2022-07-09T01:45:02;4.78;;;4.20;;
20318;SDS011;10317;47.254;11.314;2022-07-09T01:47:28;4.00;;;3.63;;
20318;SDS011;10317;47.254;11.314;2022-07-09T01:49:54;4.22;;;3.63;;
20318;SDS011;10317;47.254;11.314;2022-07-09T01:52:20;3.75;;;3.38;;
20318;SDS011;10317;47.254;11.314;2022-07-09T01:54:46;3.83;;;3.53;;
20318;SDS011;10317;47.254;11.314;2022-07-09T01:57:11;5.07;;;3.80;;
20318;SDS011;10317;47.254;11.314;2022-07-09T01:59:37;4.13;;;3.67;;
20318;SDS011;10317;47.254;11.314;2022-07-09T02:02:03;4.45;;;3.80;;
20318;SDS011;10317;47.254;11.314;2022-07-09T02:04:30;3.75;;;3.45;;
20318;SDS011;10317;47.254;11.314;2022-07-09T02:06:56;4.72;;;3.50;;
20318;SDS011;10317;47.254;11.314;2022-07-09T02:09:21;5.03;;;3.60;;
20318;SDS011;10317;47.254;11.314;2022-07-09T02:11:47;4.70;;;3.30;;
20318;SDS011;10317;47.254;11.314;2022-07-09T02:14:14;3.60;;;3.40;;
20318;SDS011;10317;47.254;11.314;2022-07-09T02:16:40;3.97;;;3.60;;
20318;SDS011;10317;47.254;11.314;2022-07-09T02:19:05;4.32;;;3.45;;
20318;SDS011;10317;47.254;11.314;2022-07-09T02:21:32;4.95;;;4.15;;
20318;SDS011;10317;47.254;11.314;2022-07-09T02:23:58;4.70;;;3.67;;
20318;SDS011;10317;47.254;11.314;2022-07-09T02:26:27;4.78;;;4.43;;
20318;SDS011;10317;47.254;11.314;2022-07-09T02:28:57;4.50;;;4.20;;
20318;SDS011;10317;47.254;11.314;2022-07-09T02:31:24;4.40;;;3.67;;
20318;SDS011;10317;47.254;11.314;2022-07-09T02:33:50;4.97;;;3.97;;
20318;SDS011;10317;47.254;11.314;2022-07-09T02:36:17;3.88;;;3.50;;
20318;SDS011;10317;47.254;11.314;2022-07-09T02:38:43;4.88;;;4.20;;
20318;SDS011;10317;47.254;11.314;2022-07-09T02:41:09;7.32;;;4.68;;
20318;SDS011;10317;47.254;11.314;2022-07-09T02:43:37;4.30;;;3.85;;
20318;SDS011;10317;47.254;11.314;2022-07-09T02:46:03;4.00;;;3.80;;
20318;SDS011;10317;47.254;11.314;2022-07-09T02:48:30;5.55;;;4.15;;
20318;SDS011;10317;47.254;11.314;2022-07-09T02:50:59;4.53;;;4.13;;
20318;SDS011;10317;47.254;11.314;2022-07-09T02:53:25;4.07;;;3.70;;
20318;SDS011;10317;47.254;11.314;2022-07-09T02:55:51;5.38;;;4.10;;
20318;SDS011;10317;47.254;11.314;2022-07-09T02:58:17;6.85;;;3.95;;
20318;SDS011;10317;47.254;11.314;2022-07-09T03:00:43;4.85;;;4.45;;
20318;SDS011;10317;47.254;11.314;2022-07-09T03:03:09;5.03;;;4.10;;
20318;SDS011;10317;47.254;11.314;2022-07-09T03:05:37;6.15;;;3.85;;
20318;SDS011;10317;47.254;11.314;2022-07-09T03:08:05;6.25;;;4.60;;
20318;SDS011;10317;47.254;11.314;2022-07-09T03:10:33;5.85;;;4.32;;
20318;SDS011;10317;47.254;11.314;2022-07-09T03:12:59;5.28;;;4.38;;
20318;SDS011;10317;47.254;11.314;2022-07-09T03:15:25;5.15;;;4.65;;
20318;SDS011;10317;47.254;11.314;2022-07-09T03:17:51;4.25;;;3.95;;
20318;SDS011;10317;47.254;11.314;2022-07-09T03:20:17;5.35;;;4.05;;
20318;SDS011;10317;47.254;11.314;2022-07-09T03:22:43;5.20;;;4.65;;
20318;SDS011;10317;47.254;11.314;2022-07-09T03:25:09;5.10;;;4.05;;
20318;SDS011;10317;47.254;11.314;2022-07-09T03:27:35;7.85;;;3.72;;
20318;SDS011;10317;47.254;11.314;2022-07-09T03:30:01;3.97;;;3.67;;
20318;SDS011;10317;47.254;11.314;2022-07-09T03:32:28;7.18;;;4.15;;
20318;SDS011;10317;47.254;11.314;2022-07-09T03:34:54;5.15;;;4.03;;
20318;SDS011;10317;47.254;11.314;2022-07-09T03:37:20;3.65;;;3.40;;
20318;SDS011;10317;47.254;11.314;2022-07-09T03:39:46;5.20;;;4.03;;
20318;SDS011;10317;47.254;11.314;2022-07-09T03:42:12;4.68;;;4.20;;
20318;SDS011;10317;47.254;11.314;2022-07-09T03:44:38;3.95;;;3.63;;
20318;SDS011;10317;47.254;11.314;2022-07-09T03:47:05;4.05;;;3.75;;
20318;SDS011;10317;47.254;11.314;2022-07-09T03:49:31;5.93;;;4.47;;
20318;SDS011;10317;47.254;11.314;2022-07-09T03:51:57;4.30;;;4.00;;
20318;SDS011;10317;47.254;11.314;2022-07-09T03:54:23;3.75;;;3.50;;
20318;SDS011;10317;47.254;11.314;2022-07-09T03:56:49;5.10;;;4.60;;
20318;SDS011;10317;47.254;11.314;2022-07-09T03:59:15;4.22;;;3.83;;
20318;SDS011;10317;47.254;11.314;2022-07-09T04:01:41;4.10;;;3.40;;
20318;SDS011;10317;47.254;11.314;2022-07-09T04:04:07;4.15;;;3.85;;
20318;SDS011;10317;47.254;11.314;2022-07-09T04:06:33;4.15;;;3.83;;
20318;SDS011;10317;47.254;11.314;2022-07-09T04:08:59;6.22;;;3.72;;
20318;SDS011;10317;47.254;11.314;2022-07-09T04:11:32;4.05;;;3.85;;
20318;SDS011;10317;47.254;11.314;2022-07-09T04:13:59;5.43;;;3.85;;
20318;SDS011;10317;47.254;11.314;2022-07-09T04:16:26;4.60;;;4.18;;
20318;SDS011;10317;47.254;11.314;2022-07-09T04:18:52;4.07;;;3.78;;
20318;SDS011;10317;47.254;11.314;2022-07-09T04:21:17;5.68;;;4.75;;
20318;SDS011;10317;47.254;11.314;2022-07-09T04:23:46;4.10;;;3.80;;
20318;SDS011;10317;47.254;11.314;2022-07-09T04:26:13;4.03;;;3.80;;
20318;SDS011;10317;47.254;11.314;2022-07-09T04:28:39;4.28;;;3.88;;
20318;SDS011;10317;47.254;11.314;2022-07-09T04:31:05;5.05;;;4.65;;
20318;SDS011;10317;47.254;11.314;2022-07-09T04:33:31;3.72;;;3.45;;
20318;SDS011;10317;47.254;11.314;2022-07-09T04:35:56;4.40;;;4.00;;
20318;SDS011;10317;47.254;11.314;2022-07-09T04:38:22;4.68;;;4.38;;
20318;SDS011;10317;47.254;11.314;2022-07-09T04:40:48;4.35;;;4.05;;
20318;SDS011;10317;47.254;11.314;2022-07-09T04:43:14;4.90;;;4.47;;
20318;SDS011;10317;47.254;11.314;2022-07-09T04:45:39;5.43;;;4.90;;
20318;SDS011;10317;47.254;11.314;2022-07-09T04:48:05;4.85;;;4.25;;
20318;SDS011;10317;47.254;11.314;2022-07-09T04:50:31;4.30;;;3.90;;
20318;SDS011;10317;47.254;11.314;2022-07-09T04:52:56;4.65;;;4.25;;
20318;SDS011;10317;47.254;11.314;2022-07-09T04:55:23;5.68;;;4.03;;
20318;SDS011;10317;47.254;11.314;2022-07-09T04:57:49;4.82;;;4.40;;
20318;SDS011;10317;47.254;11.314;2022-07-09T05:00:15;4.53;;;4.22;;
20318;SDS011;10317;47.254;11.314;2022-07-09T05:02:42;4.03;;;3.72;;
20318;SDS011;10317;47.254;11.314;2022-07-09T05:05:08;8.07;;;5.97;;
20318;SDS011;10317;47.254;11.314;2022-07-09T05:07:34;5.05;;;4.63;;
20318;SDS011;10317;47.254;11.314;2022-07-09T05:10:00;7.45;;;4.85;;
20318;SDS011;10317;47.254;11.314;2022-07-09T05:12:29;4.15;;;3.85;;
20318;SDS011;10317;47.254;11.314;2022-07-09T05:14:55;3.40;;;3.13;;
20318;SDS011;10317;47.254;11.314;2022-07-09T05:17:22;4.13;;;3.70;;
20318;SDS011;10317;47.254;11.314;2022-07-09T05:19:48;3.40;;;3.20;;
20318;SDS011;10317;47.254;11.314;2022-07-09T05:22:14;3.97;;;3.40;;
20318;SDS011;10317;47.254;11.314;2022-07-09T05:24:40;4.90;;;3.35;;
20318;SDS011;10317;47.254;11.314;2022-07-09T05:27:06;4.18;;;3.40;;
20318;SDS011;10317;47.254;11.314;2022-07-09T05:29:34;5.65;;;3.75;;
20318;SDS011;10317;47.254;11.314;2022-07-09T05:32:00;4.10;;;3.40;;
20318;SDS011;10317;47.254;11.314;2022-07-09T05:34:26;4.03;;;3.83;;
20318;SDS011;10317;47.254;11.314;2022-07-09T05:36:52;5.53;;;3.95;;
20318;SDS011;10317;47.254;11.314;2022-07-09T05:39:18;4.47;;;3.65;;
20318;SDS011;10317;47.254;11.314;2022-07-09T05:41:43;4.28;;;3.78;;
20318;SDS011;10317;47.254;11.314;2022-07-09T05:44:09;3.97;;;3.60;;
20318;SDS011;10317;47.254;11.314;2022-07-09T05:46:35;3.20;;;3.00;;
20318;SDS011;10317;47.254;11.314;2022-07-09T05:49:01;3.08;;;2.97;;
20318;SDS011;10317;47.254;11.314;2022-07-09T05:51:28;5.40;;;3.92;;
20318;SDS011;10317;47.254;11.314;2022-07-09T05:53:53;4.80;;;3.60;;
20318;SDS011;10317;47.254;11.314;2022-07-09T05:56:19;3.55;;;3.28;;
20318;SDS011;10317;47.254;11.314;2022-07-09T05:58:45;5.40;;;3.58;;
20318;SDS011;10317;47.254;11.314;2022-07-09T06:01:11;3.55;;;3.25;;
20318;SDS011;10317;47.254;11.314;2022-07-09T06:03:38;3.38;;;3.17;;
20318;SDS011;10317;47.254;11.314;2022-07-09T06:06:04;3.97;;;3.38;;
20318;SDS011;10317;47.254;11.314;2022-07-09T06:08:30;4.10;;;3.88;;
20318;SDS011;10317;47.254;11.314;2022-07-09T06:10:57;4.53;;;3.58;;
20318;SDS011;10317;47.254;11.314;2022-07-09T06:13:22;4.95;;;3.72;;
20318;SDS011;10317;47.254;11.314;2022-07-09T06:15:48;5.70;;;4.22;;
20318;SDS011;10317;47.254;11.314;2022-07-09T06:18:14;4.75;;;3.80;;
20318;SDS011;10317;47.254;11.314;2022-07-09T06:20:41;3.97;;;3.60;;
20318;SDS011;10317;47.254;11.314;2022-07-09T06:23:06;5.88;;;3.83;;
20318;SDS011;10317;47.254;11.314;2022-07-09T06:25:32;3.85;;;3.22;;
20318;SDS011;10317;47.254;11.314;2022-07-09T06:27:58;5.32;;;3.95;;
20318;SDS011;10317;47.254;11.314;2022-07-09T06:30:24;4.05;;;3.75;;
20318;SDS011;10317;47.254;11.314;2022-07-09T06:32:49;4.28;;;3.88;;
20318;SDS011;10317;47.254;11.314;2022-07-09T06:35:16;3.63;;;3.33;;
20318;SDS011;10317;47.254;11.314;2022-07-09T06:37:43;8.50;;;3.67;;
20318;SDS011;10317;47.254;11.314;2022-07-09T06:40:12;6.93;;;3.55;;
20318;SDS011;10317;47.254;11.314;2022-07-09T07:28:20;3.33;;;2.60;;
20318;SDS011;10317;47.254;11.314;2022-07-09T07:30:46;3.75;;;2.55;;
20318;SDS011;10317;47.254;11.314;2022-07-09T07:33:12;2.72;;;2.53;;
20318;SDS011;10317;47.254;11.314;2022-07-09T07:35:38;3.28;;;2.67;;
20318;SDS011;10317;47.254;11.314;2022-07-09T07:38:04;3.03;;;2.30;;
20318;SDS011;10317;47.254;11.314;2022-07-09T07:40:29;3.75;;;2.42;;
20318;SDS011;10317;47.254;11.314;2022-07-09T07:42:55;3.35;;;2.65;;
20318;SDS011;10317;47.254;11.314;2022-07-09T07:45:21;2.85;;;2.30;;
20318;SDS011;10317;47.254;11.314;2022-07-09T07:47:46;2.33;;;2.15;;
20318;SDS011;10317;47.254;11.314;2022-07-09T07:50:12;3.70;;;2.85;;
20318;SDS011;10317;47.254;11.314;2022-07-09T07:52:38;2.63;;;2.40;;
20318;SDS011;10317;47.254;11.314;2022-07-09T07:55:03;5.65;;;2.17;;
20318;SDS011;10317;47.254;11.314;2022-07-09T07:57:30;2.40;;;2.30;;
20318;SDS011;10317;47.254;11.314;2022-07-09T07:59:55;5.70;;;2.55;;
20318;SDS011;10317;47.254;11.314;2022-07-09T08:02:21;2.67;;;2.47;;
20318;SDS011;10317;47.254;11.314;2022-07-09T08:04:47;4.38;;;2.33;;
20318;SDS011;10317;47.254;11.314;2022-07-09T08:07:12;2.75;;;2.53;;
20318;SDS011;10317;47.254;11.314;2022-07-09T08:09:38;4.55;;;2.60;;
20318;SDS011;10317;47.254;11.314;2022-07-09T08:12:04;3.00;;;2.30;;
20318;SDS011;10317;47.254;11.314;2022-07-09T08:14:30;3.65;;;2.30;;
20318;SDS011;10317;47.254;11.314;2022-07-09T08:16:55;2.30;;;2.10;;
20318;SDS011;10317;47.254;11.314;2022-07-09T08:19:39;4.35;;;2.33;;
20318;SDS011;10317;47.254;11.314;2022-07-09T08:22:17;4.05;;;2.40;;
20318;SDS011;10317;47.254;11.314;2022-07-09T08:28:09;2.83;;;2.40;;
20318;SDS011;10317;47.254;11.314;2022-07-09T08:34:30;3.25;;;2.30;;
20318;SDS011;10317;47.254;11.314;2022-07-09T08:36:55;2.45;;;1.88;;
20318;SDS011;10317;47.254;11.314;2022-07-09T08:39:21;2.20;;;2.00;;
20318;SDS011;10317;47.254;11.314;2022-07-09T08:41:47;3.60;;;2.10;;
20318;SDS011;10317;47.254;11.314;2022-07-09T08:44:13;4.82;;;2.22;;
20318;SDS011;10317;47.254;11.314;2022-07-09T08:46:39;8.63;;;2.50;;
20318;SDS011;10317;47.254;11.314;2022-07-09T08:49:08;1.88;;;1.77;;
20318;SDS011;10317;47.254;11.314;2022-07-09T08:51:36;2.90;;;2.15;;
20318;SDS011;10317;47.254;11.314;2022-07-09T08:54:02;2.70;;;2.00;;
20318;SDS011;10317;47.254;11.314;2022-07-09T08:56:28;2.17;;;2.08;;
20318;SDS011;10317;47.254;11.314;2022-07-09T08:58:54;4.13;;;2.45;;
20318;SDS011;10317;47.254;11.314;2022-07-09T09:01:20;3.05;;;2.25;;
20318;SDS011;10317;47.254;11.314;2022-07-09T09:03:46;3.63;;;2.33;;
20318;SDS011;10317;47.254;11.314;2022-07-09T09:06:12;2.20;;;2.00;;
20318;SDS011;10317;47.254;11.314;2022-07-09T09:08:40;2.63;;;2.42;;
20318;SDS011;10317;47.254;11.314;2022-07-09T09:11:08;2.50;;;2.30;;
20318;SDS011;10317;47.254;11.314;2022-07-09T09:13:46;3.83;;;2.00;;
20318;SDS011;10317;47.254;11.314;2022-07-09T09:16:13;2.00;;;1.90;;
20318;SDS011;10317;47.254;11.314;2022-07-09T09:18:45;2.40;;;2.20;;
20318;SDS011;10317;47.254;11.314;2022-07-09T09:21:13;3.00;;;2.00;;
20318;SDS011;10317;47.254;11.314;2022-07-09T09:23:43;2.58;;;1.60;;
20318;SDS011;10317;47.254;11.314;2022-07-09T09:26:18;3.10;;;2.13;;
20318;SDS011;10317;47.254;11.314;2022-07-09T09:28:46;2.72;;;2.05;;
20318;SDS011;10317;47.254;11.314;2022-07-09T09:31:23;4.10;;;1.92;;
20318;SDS011;10317;47.254;11.314;2022-07-09T09:33:50;4.22;;;2.17;;
20318;SDS011;10317;47.254;11.314;2022-07-09T09:36:33;5.10;;;2.40;;
20318;SDS011;10317;47.254;11.314;2022-07-09T09:39:09;2.67;;;1.83;;
20318;SDS011;10317;47.254;11.314;2022-07-09T09:41:52;3.63;;;1.88;;
20318;SDS011;10317;47.254;11.314;2022-07-09T09:44:23;3.05;;;2.05;;
20318;SDS011;10317;47.254;11.314;2022-07-09T09:46:55;2.42;;;1.75;;
20318;SDS011;10317;47.254;11.314;2022-07-09T09:49:21;2.50;;;1.50;;
20318;SDS011;10317;47.254;11.314;2022-07-09T09:51:49;2.67;;;1.65;;
20318;SDS011;10317;47.254;11.314;2022-07-09T09:54:33;1.80;;;1.70;;
20318;SDS011;10317;47.254;11.314;2022-07-09T09:57:10;2.45;;;1.80;;
20318;SDS011;10317;47.254;11.314;2022-07-09T09:59:39;4.68;;;1.98;;
20318;SDS011;10317;47.254;11.314;2022-07-09T10:02:07;3.50;;;1.73;;
20318;SDS011;10317;47.254;11.314;2022-07-09T10:04:35;1.60;;;1.50;;
20318;SDS011;10317;47.254;11.314;2022-07-09T10:07:03;3.05;;;1.70;;
20318;SDS011;10317;47.254;11.314;2022-07-09T10:09:29;2.13;;;1.83;;
20318;SDS011;10317;47.254;11.314;2022-07-09T10:11:55;2.35;;;1.85;;
20318;SDS011;10317;47.254;11.314;2022-07-09T10:16:51;1.83;;;1.73;;
20318;SDS011;10317;47.254;11.314;2022-07-09T10:21:58;3.92;;;1.70;;
20318;SDS011;10317;47.254;11.314;2022-07-09T10:24:31;2.20;;;1.90;;
20318;SDS011;10317;47.254;11.314;2022-07-09T10:27:03;1.58;;;1.33;;
20318;SDS011;10317;47.254;11.314;2022-07-09T10:29:33;3.85;;;2.17;;
20318;SDS011;10317;47.254;11.314;2022-07-09T10:31:59;4.90;;;1.55;;
20318;SDS011;10317;47.254;11.314;2022-07-09T10:37:13;6.40;;;2.60;;
20318;SDS011;10317;47.254;11.314;2022-07-09T10:39:39;1.55;;;1.20;;
20318;SDS011;10317;47.254;11.314;2022-07-09T10:42:26;4.05;;;1.52;;
20318;SDS011;10317;47.254;11.314;2022-07-09T10:44:51;4.38;;;1.50;;
20318;SDS011;10317;47.254;11.314;2022-07-09T10:47:18;1.48;;;1.38;;
20318;SDS011;10317;47.254;11.314;2022-07-09T10:49:45;1.60;;;1.50;;
20318;SDS011;10317;47.254;11.314;2022-07-09T10:52:11;1.50;;;1.50;;
20318;SDS011;10317;47.254;11.314;2022-07-09T10:54:46;4.13;;;1.58;;
20318;SDS011;10317;47.254;11.314;2022-07-09T10:57:16;2.10;;;1.48;;
20318;SDS011;10317;47.254;11.314;2022-07-09T10:59:45;1.98;;;1.42;;
20318;SDS011;10317;47.254;11.314;2022-07-09T11:02:21;3.15;;;1.40;;
20318;SDS011;10317;47.254;11.314;2022-07-09T11:04:51;1.10;;;1.10;;
20318;SDS011;10317;47.254;11.314;2022-07-09T11:07:24;1.33;;;1.30;;
20318;SDS011;10317;47.254;11.314;2022-07-09T11:09:51;1.55;;;1.30;;
20318;SDS011;10317;47.254;11.314;2022-07-09T11:12:17;2.00;;;1.80;;
20318;SDS011;10317;47.254;11.314;2022-07-09T11:14:45;1.45;;;1.35;;
20318;SDS011;10317;47.254;11.314;2022-07-09T11:17:15;1.15;;;1.15;;
20318;SDS011;10317;47.254;11.314;2022-07-09T11:19:42;1.10;;;1.10;;
20318;SDS011;10317;47.254;11.314;2022-07-09T11:22:09;2.35;;;1.40;;
20318;SDS011;10317;47.254;11.314;2022-07-09T11:24:35;1.10;;;1.00;;
20318;SDS011;10317;47.254;11.314;2022-07-09T11:27:01;1.50;;;1.30;;
20318;SDS011;10317;47.254;11.314;2022-07-09T11:29:28;1.77;;;1.30;;
20318;SDS011;10317;47.254;11.314;2022-07-09T11:31:54;3.60;;;1.90;;
20318;SDS011;10317;47.254;11.314;2022-07-09T11:34:19;1.02;;;1.00;;
20318;SDS011;10317;47.254;11.314;2022-07-09T11:36:46;1.23;;;1.17;;
20318;SDS011;10317;47.254;11.314;2022-07-09T11:39:28;2.13;;;1.33;;
20318;SDS011;10317;47.254;11.314;2022-07-09T11:41:58;1.30;;;1.25;;
20318;SDS011;10317;47.254;11.314;2022-07-09T11:44:26;1.58;;;1.25;;
20318;SDS011;10317;47.254;11.314;2022-07-09T11:47:30;1.85;;;1.17;;
20318;SDS011;10317;47.254;11.314;2022-07-09T11:49:48;0.80;;;0.80;;
20318;SDS011;10317;47.254;11.314;2022-07-09T11:52:22;1.40;;;1.30;;
20318;SDS011;10317;47.254;11.314;2022-07-09T11:54:56;1.10;;;1.00;;
20318;SDS011;10317;47.254;11.314;2022-07-09T11:57:30;1.58;;;1.25;;
20318;SDS011;10317;47.254;11.314;2022-07-09T11:59:58;1.33;;;1.13;;
20318;SDS011;10317;47.254;11.314;2022-07-09T12:02:24;0.82;;;0.82;;
20318;SDS011;10317;47.254;11.314;2022-07-09T12:04:51;1.30;;;1.00;;
20318;SDS011;10317;47.254;11.314;2022-07-09T12:07:17;1.20;;;1.20;;
20318;SDS011;10317;47.254;11.314;2022-07-09T12:09:42;0.90;;;0.90;;
20318;SDS011;10317;47.254;11.314;2022-07-09T12:12:08;3.33;;;1.33;;
20318;SDS011;10317;47.254;11.314;2022-07-09T12:14:34;3.03;;;1.20;;
20318;SDS011;10317;47.254;11.314;2022-07-09T12:16:59;1.45;;;1.30;;
20318;SDS011;10317;47.254;11.314;2022-07-09T12:19:25;1.65;;;1.10;;
20318;SDS011;10317;47.254;11.314;2022-07-09T12:21:51;2.28;;;1.25;;
20318;SDS011;10317;47.254;11.314;2022-07-09T12:24:17;1.20;;;1.10;;
20318;SDS011;10317;47.254;11.314;2022-07-09T12:26:43;1.67;;;1.40;;
20318;SDS011;10317;47.254;11.314;2022-07-09T12:50:11;2.53;;;1.25;;
20318;SDS011;10317;47.254;11.314;2022-07-09T12:52:36;1.67;;;1.30;;
20318;SDS011;10317;47.254;11.314;2022-07-09T12:55:03;1.60;;;1.10;;
20318;SDS011;10317;47.254;11.314;2022-07-09T12:57:29;1.45;;;0.93;;
20318;SDS011;10317;47.254;11.314;2022-07-09T12:59:55;1.20;;;1.10;;
20318;SDS011;10317;47.254;11.314;2022-07-09T13:02:21;3.25;;;1.00;;
20318;SDS011;10317;47.254;11.314;2022-07-09T13:04:47;1.55;;;0.90;;
20318;SDS011;10317;47.254;11.314;2022-07-09T13:07:13;1.13;;;1.02;;
20318;SDS011;10317;47.254;11.314;2022-07-09T13:09:39;1.40;;;0.80;;
20318;SDS011;10317;47.254;11.314;2022-07-09T13:12:04;1.67;;;1.08;;
20318;SDS011;10317;47.254;11.314;2022-07-09T13:14:30;0.70;;;0.70;;
20318;SDS011;10317;47.254;11.314;2022-07-09T13:16:56;1.17;;;1.08;;
20318;SDS011;10317;47.254;11.314;2022-07-09T13:19:22;2.00;;;1.02;;
20318;SDS011;10317;47.254;11.314;2022-07-09T13:21:48;0.90;;;0.90;;
20318;SDS011;10317;47.254;11.314;2022-07-09T13:24:13;1.75;;;0.82;;
20318;SDS011;10317;47.254;11.314;2022-07-09T13:26:40;0.88;;;0.85;;
20318;SDS011;10317;47.254;11.314;2022-07-09T13:36:17;1.38;;;1.13;;
20318;SDS011;10317;47.254;11.314;2022-07-09T13:38:43;0.93;;;0.85;;
20318;SDS011;10317;47.254;11.314;2022-07-09T13:51:13;1.00;;;1.00;;
20318;SDS011;10317;47.254;11.314;2022-07-09T13:53:39;1.20;;;1.10;;
20318;SDS011;10317;47.254;11.314;2022-07-09T13:56:05;1.45;;;0.98;;
20318;SDS011;10317;47.254;11.314;2022-07-09T13:58:31;1.58;;;1.13;;
20318;SDS011;10317;47.254;11.314;2022-07-09T14:00:57;1.30;;;0.90;;
20318;SDS011;10317;47.254;11.314;2022-07-09T14:03:23;1.02;;;1.02;;
20318;SDS011;10317;47.254;11.314;2022-07-09T14:05:48;0.98;;;0.98;;
20318;SDS011;10317;47.254;11.314;2022-07-09T14:08:14;1.20;;;0.80;;
20318;SDS011;10317;47.254;11.314;2022-07-09T14:10:40;1.88;;;1.15;;
20318;SDS011;10317;47.254;11.314;2022-07-09T14:13:06;1.10;;;1.02;;
20318;SDS011;10317;47.254;11.314;2022-07-09T14:15:31;1.92;;;0.93;;
20318;SDS011;10317;47.254;11.314;2022-07-09T14:17:58;2.47;;;1.13;;
20318;SDS011;10317;47.254;11.314;2022-07-09T14:20:24;1.10;;;1.10;;
20318;SDS011;10317;47.254;11.314;2022-07-09T14:22:50;0.90;;;0.90;;
20318;SDS011;10317;47.254;11.314;2022-07-09T14:25:16;1.05;;;0.77;;
20318;SDS011;10317;47.254;11.314;2022-07-09T14:27:42;2.13;;;0.90;;
20318;SDS011;10317;47.254;11.314;2022-07-09T14:30:08;0.80;;;0.80;;
20318;SDS011;10317;47.254;11.314;2022-07-09T14:32:34;1.33;;;1.00;;
20318;SDS011;10317;47.254;11.314;2022-07-09T14:35:00;0.82;;;0.82;;
20318;SDS011;10317;47.254;11.314;2022-07-09T14:37:26;1.00;;;0.80;;
20318;SDS011;10317;47.254;11.314;2022-07-09T14:39:53;0.80;;;0.80;;
20318;SDS011;10317;47.254;11.314;2022-07-09T14:42:19;2.22;;;1.08;;
20318;SDS011;10317;47.254;11.314;2022-07-09T14:44:44;2.72;;;0.80;;
20318;SDS011;10317;47.254;11.314;2022-07-09T14:47:11;3.10;;;1.00;;
20318;SDS011;10317;47.254;11.314;2022-07-09T14:49:36;1.38;;;1.00;;
20318;SDS011;10317;47.254;11.314;2022-07-09T14:52:02;1.05;;;0.90;;
20318;SDS011;10317;47.254;11.314;2022-07-09T14:54:28;0.90;;;0.90;;
20318;SDS011;10317;47.254;11.314;2022-07-09T14:56:54;1.25;;;1.17;;
20318;SDS011;10317;47.254;11.314;2022-07-09T14:59:19;1.67;;;1.00;;
20318;SDS011;10317;47.254;11.314;2022-07-09T15:01:47;0.90;;;0.90;;
20318;SDS011;10317;47.254;11.314;2022-07-09T15:04:13;2.55;;;1.08;;
20318;SDS011;10317;47.254;11.314;2022-07-09T15:06:40;2.03;;;0.98;;
20318;SDS011;10317;47.254;11.314;2022-07-09T15:09:06;3.53;;;1.13;;
20318;SDS011;10317;47.254;11.314;2022-07-09T15:11:31;1.00;;;1.00;;
20318;SDS011;10317;47.254;11.314;2022-07-09T15:13:57;0.90;;;0.90;;
20318;SDS011;10317;47.254;11.314;2022-07-09T15:16:23;0.93;;;0.90;;
20318;SDS011;10317;47.254;11.314;2022-07-09T15:18:49;0.80;;;0.80;;
20318;SDS011;10317;47.254;11.314;2022-07-09T15:21:15;1.80;;;1.10;;
20318;SDS011;10317;47.254;11.314;2022-07-09T15:23:42;0.90;;;0.90;;
20318;SDS011;10317;47.254;11.314;2022-07-09T15:26:07;0.90;;;0.90;;
20318;SDS011;10317;47.254;11.314;2022-07-09T15:28:33;0.80;;;0.80;;
20318;SDS011;10317;47.254;11.314;2022-07-09T15:30:59;1.00;;;1.00;;
20318;SDS011;10317;47.254;11.314;2022-07-09T15:33:24;0.70;;;0.70;;
20318;SDS011;10317;47.254;11.314;2022-07-09T15:35:50;1.70;;;0.90;;
20318;SDS011;10317;47.254;11.314;2022-07-09T15:38:16;0.95;;;0.93;;
20318;SDS011;10317;47.254;11.314;2022-07-09T15:40:41;0.90;;;0.90;;
20318;SDS011;10317;47.254;11.314;2022-07-09T15:43:07;1.30;;;1.20;;
20318;SDS011;10317;47.254;11.314;2022-07-09T15:45:33;0.70;;;0.70;;
20318;SDS011;10317;47.254;11.314;2022-07-09T15:47:59;1.00;;;1.00;;
20318;SDS011;10317;47.254;11.314;2022-07-09T15:50:25;1.20;;;1.10;;
20318;SDS011;10317;47.254;11.314;2022-07-09T15:52:51;3.20;;;1.25;;
20318;SDS011;10317;47.254;11.314;2022-07-09T15:55:17;1.77;;;1.00;;
20318;SDS011;10317;47.254;11.314;2022-07-09T15:57:43;0.85;;;0.80;;
20318;SDS011;10317;47.254;11.314;2022-07-09T16:00:09;2.47;;;0.93;;
20318;SDS011;10317;47.254;11.314;2022-07-09T16:02:37;0.75;;;0.75;;
20318;SDS011;10317;47.254;11.314;2022-07-09T16:05:03;1.05;;;1.00;;
20318;SDS011;10317;47.254;11.314;2022-07-09T16:07:30;1.33;;;1.23;;
20318;SDS011;10317;47.254;11.314;2022-07-09T16:09:56;0.70;;;0.70;;